sensor_id;sensor_type;location;lat;lon;timestamp;pressure;altitude;pressure_sealevel;temperature;humidity
50484;BME280;36409;52.168;20.878;2023-04-25T00:01:22;99246.05;;;11.03;57.40
50484;BME280;36409;52.168;20.878;2023-04-25T00:03:55;99244.34;;;11.02;58.05
50484;BME280;36409;52.168;20.878;2023-04-25T00:06:31;99240.03;;;11.01;58.21
50484;BME280;36409;52.168;20.878;2023-04-25T00:09:07;99240.93;;;11.00;58.21
50484;BME280;36409;52.168;20.878;2023-04-25T00:11:42;99237.61;;;10.94;58.10
50484;BME280;36409;52.168;20.878;2023-04-25T00:14:17;99231.70;;;10.89;58.53
50484;BME280;36409;52.168;20.878;2023-04-25T00:16:50;99226.64;;;10.85;57.98
50484;BME280;36409;52.168;20.878;2023-04-25T00:19:22;99230.09;;;10.85;58.20
50484;BME280;36409;52.168;20.878;2023-04-25T00:21:56;99239.56;;;10.88;58.19
50484;BME280;36409;52.168;20.878;2023-04-25T00:24:29;99230.03;;;10.87;58.42
50484;BME280;36409;52.168;20.878;2023-04-25T00:27:02;99232.64;;;10.87;59.10
50484;BME280;36409;52.168;20.878;2023-04-25T00:29:34;99231.86;;;10.85;58.67
50484;BME280;36409;52.168;20.878;2023-04-25T00:32:07;99235.38;;;10.84;58.51
50484;BME280;36409;52.168;20.878;2023-04-25T00:34:41;99227.57;;;10.82;59.09
50484;BME280;36409;52.168;20.878;2023-04-25T00:37:14;99229.28;;;10.83;59.49
50484;BME280;36409;52.168;20.878;2023-04-25T00:39:47;99230.98;;;10.84;59.39
50484;BME280;36409;52.168;20.878;2023-04-25T00:42:21;99231.80;;;10.86;59.36
50484;BME280;36409;52.168;20.878;2023-04-25T00:44:55;99235.16;;;10.90;59.61
50484;BME280;36409;52.168;20.878;2023-04-25T00:47:30;99231.55;;;10.94;59.88
50484;BME280;36409;52.168;20.878;2023-04-25T00:50:05;99233.13;;;10.98;60.12
50484;BME280;36409;52.168;20.878;2023-04-25T00:52:41;99240.87;;;11.01;60.52
50484;BME280;36409;52.168;20.878;2023-04-25T00:55:17;99236.52;;;11.02;60.58
50484;BME280;36409;52.168;20.878;2023-04-25T00:57:52;99236.45;;;11.03;60.09
50484;BME280;36409;52.168;20.878;2023-04-25T01:00:24;99227.72;;;11.04;60.60
50484;BME280;36409;52.168;20.878;2023-04-25T01:02:57;99232.88;;;11.06;60.95
50484;BME280;36409;52.168;20.878;2023-04-25T01:05:31;99240.70;;;11.06;60.25
50484;BME280;36409;52.168;20.878;2023-04-25T01:08:04;99238.22;;;11.03;60.44
50484;BME280;36409;52.168;20.878;2023-04-25T01:10:37;99245.13;;;11.04;60.84
50484;BME280;36409;52.168;20.878;2023-04-25T01:13:16;99240.84;;;11.03;61.35
50484;BME280;36409;52.168;20.878;2023-04-25T01:15:50;99233.94;;;11.00;61.36
50484;BME280;36409;52.168;20.878;2023-04-25T01:18:23;99235.73;;;10.98;61.17
50484;BME280;36409;52.168;20.878;2023-04-25T01:23:29;99237.61;;;10.94;61.78
50484;BME280;36409;52.168;20.878;2023-04-25T01:26:04;99237.67;;;10.93;61.61
50484;BME280;36409;52.168;20.878;2023-04-25T01:28:39;99235.96;;;10.92;62.02
50484;BME280;36409;52.168;20.878;2023-04-25T01:31:14;99241.19;;;10.92;61.62
50484;BME280;36409;52.168;20.878;2023-04-25T01:33:49;99232.55;;;10.90;62.48
50484;BME280;36409;52.168;20.878;2023-04-25T01:36:23;99225.58;;;10.90;62.29
50484;BME280;36409;52.168;20.878;2023-04-25T01:38:56;99229.09;;;10.89;62.55
50484;BME280;36409;52.168;20.878;2023-04-25T01:41:30;99223.00;;;10.89;62.63
50484;BME280;36409;52.168;20.878;2023-04-25T01:44:06;99223.00;;;10.89;62.68
50484;BME280;36409;52.168;20.878;2023-04-25T01:46:44;99223.87;;;10.89;63.05
50484;BME280;36409;52.168;20.878;2023-04-25T01:49:17;99219.55;;;10.88;62.82
50484;BME280;36409;52.168;20.878;2023-04-25T01:51:51;99219.55;;;10.88;62.54
50484;BME280;36409;52.168;20.878;2023-04-25T01:54:24;99224.77;;;10.88;62.69
50484;BME280;36409;52.168;20.878;2023-04-25T01:56:58;99227.39;;;10.88;62.96
50484;BME280;36409;52.168;20.878;2023-04-25T01:59:31;99226.52;;;10.88;63.18
50484;BME280;36409;52.168;20.878;2023-04-25T02:02:20;99233.51;;;10.87;63.55
50484;BME280;36409;52.168;20.878;2023-04-25T02:04:54;99228.34;;;10.86;63.15
50484;BME280;36409;52.168;20.878;2023-04-25T02:07:31;99225.73;;;10.86;63.62
50484;BME280;36409;52.168;20.878;2023-04-25T02:10:06;99230.95;;;10.86;63.43
50484;BME280;36409;52.168;20.878;2023-04-25T02:12:44;99222.32;;;10.84;63.64
50484;BME280;36409;52.168;20.878;2023-04-25T02:15:41;99224.13;;;10.81;63.37
50484;BME280;36409;52.168;20.878;2023-04-25T02:18:23;99210.33;;;10.78;63.35
50484;BME280;36409;52.168;20.878;2023-04-25T02:20:57;99208.65;;;10.75;63.73
50484;BME280;36409;52.168;20.878;2023-04-25T02:23:31;99217.50;;;10.71;63.34
50484;BME280;36409;52.168;20.878;2023-04-25T02:26:04;99220.14;;;10.70;63.35
50484;BME280;36409;52.168;20.878;2023-04-25T02:28:41;99215.05;;;10.66;64.01
50484;BME280;36409;52.168;20.878;2023-04-25T02:31:14;99220.36;;;10.63;64.13
50484;BME280;36409;52.168;20.878;2023-04-25T02:33:47;99221.27;;;10.62;63.84
50484;BME280;36409;52.168;20.878;2023-04-25T02:36:19;99215.23;;;10.60;64.55
50484;BME280;36409;52.168;20.878;2023-04-25T02:38:52;99208.37;;;10.58;63.94
50484;BME280;36409;52.168;20.878;2023-04-25T02:41:24;99212.75;;;10.57;64.24
50484;BME280;36409;52.168;20.878;2023-04-25T02:43:58;99215.38;;;10.56;64.37
50484;BME280;36409;52.168;20.878;2023-04-25T02:46:32;99217.09;;;10.57;64.22
50484;BME280;36409;52.168;20.878;2023-04-25T02:49:11;99213.67;;;10.55;64.77
50484;BME280;36409;52.168;20.878;2023-04-25T02:51:44;99209.33;;;10.55;64.38
50484;BME280;36409;52.168;20.878;2023-04-25T02:54:18;99211.94;;;10.55;64.88
50484;BME280;36409;52.168;20.878;2023-04-25T02:56:51;99207.62;;;10.54;64.61
50484;BME280;36409;52.168;20.878;2023-04-25T02:59:28;99214.64;;;10.52;64.87
50484;BME280;36409;52.168;20.878;2023-04-25T03:02:02;99208.61;;;10.50;65.11
50484;BME280;36409;52.168;20.878;2023-04-25T03:04:35;99209.52;;;10.49;64.46
50484;BME280;36409;52.168;20.878;2023-04-25T03:07:08;99209.52;;;10.49;65.36
50484;BME280;36409;52.168;20.878;2023-04-25T03:09:43;99202.58;;;10.48;64.59
50484;BME280;36409;52.168;20.878;2023-04-25T03:12:16;99208.67;;;10.48;65.46
50484;BME280;36409;52.168;20.878;2023-04-25T03:14:49;99207.80;;;10.48;64.87
50484;BME280;36409;52.168;20.878;2023-04-25T03:17:24;99217.39;;;10.47;65.55
50484;BME280;36409;52.168;20.878;2023-04-25T03:19:58;99212.18;;;10.47;64.96
50484;BME280;36409;52.168;20.878;2023-04-25T03:22:32;99219.95;;;10.49;65.75
50484;BME280;36409;52.168;20.878;2023-04-25T03:25:07;99215.59;;;10.49;65.63
50484;BME280;36409;52.168;20.878;2023-04-25T03:27:40;99225.08;;;10.52;65.17
50484;BME280;36409;52.168;20.878;2023-04-25T03:30:13;99223.22;;;10.56;65.93
50484;BME280;36409;52.168;20.878;2023-04-25T03:32:49;99224.92;;;10.57;66.02
50484;BME280;36409;52.168;20.878;2023-04-25T03:35:22;99225.67;;;10.60;65.84
50484;BME280;36409;52.168;20.878;2023-04-25T03:37:56;99226.48;;;10.62;65.66
50484;BME280;36409;52.168;20.878;2023-04-25T03:40:32;99238.54;;;10.66;65.92
50484;BME280;36409;52.168;20.878;2023-04-25T03:43:31;99234.13;;;10.69;66.08
50484;BME280;36409;52.168;20.878;2023-04-25T03:46:07;99239.22;;;10.72;65.48
50484;BME280;36409;52.168;20.878;2023-04-25T03:48:39;99237.42;;;10.74;66.02
50484;BME280;36409;52.168;20.878;2023-04-25T03:51:12;99237.36;;;10.75;65.82
50484;BME280;36409;52.168;20.878;2023-04-25T03:53:46;99237.42;;;10.74;66.10
50484;BME280;36409;52.168;20.878;2023-04-25T03:56:19;99241.74;;;10.75;66.18
50484;BME280;36409;52.168;20.878;2023-04-25T03:58:58;99242.58;;;10.75;65.93
50484;BME280;36409;52.168;20.878;2023-04-25T04:01:31;99244.29;;;10.76;66.26
50484;BME280;36409;52.168;20.878;2023-04-25T04:04:09;99249.51;;;10.76;66.22
50484;BME280;36409;52.168;20.878;2023-04-25T04:06:43;99254.73;;;10.76;66.24
50484;BME280;36409;52.168;20.878;2023-04-25T04:09:24;99246.87;;;10.78;66.11
50484;BME280;36409;52.168;20.878;2023-04-25T04:12:00;99249.42;;;10.79;66.24
50484;BME280;36409;52.168;20.878;2023-04-25T04:14:36;99253.80;;;10.79;66.23
50484;BME280;36409;52.168;20.878;2023-04-25T04:17:09;99253.80;;;10.79;66.64
50484;BME280;36409;52.168;20.878;2023-04-25T04:19:44;99255.51;;;10.80;66.62
50484;BME280;36409;52.168;20.878;2023-04-25T04:22:24;99253.80;;;10.79;66.05
50484;BME280;36409;52.168;20.878;2023-04-25T04:25:00;99259.02;;;10.79;66.86
50484;BME280;36409;52.168;20.878;2023-04-25T04:27:56;99258.15;;;10.78;66.19
50484;BME280;36409;52.168;20.878;2023-04-25T04:30:53;99252.92;;;10.78;66.81
50484;BME280;36409;52.168;20.878;2023-04-25T04:33:26;99260.73;;;10.80;67.04
50484;BME280;36409;52.168;20.878;2023-04-25T04:36:04;99265.02;;;10.81;66.50
50484;BME280;36409;52.168;20.878;2023-04-25T04:38:40;99267.75;;;10.78;67.12
50484;BME280;36409;52.168;20.878;2023-04-25T04:41:21;99270.36;;;10.78;67.14
50484;BME280;36409;52.168;20.878;2023-04-25T04:44:16;99279.09;;;10.77;66.67
50484;BME280;36409;52.168;20.878;2023-04-25T04:47:09;99272.22;;;10.74;67.03
50484;BME280;36409;52.168;20.878;2023-04-25T04:50:00;99271.41;;;10.72;66.82
50484;BME280;36409;52.168;20.878;2023-04-25T04:52:43;99278.38;;;10.72;66.80
50484;BME280;36409;52.168;20.878;2023-04-25T04:55:42;99263.67;;;10.69;67.54
50484;BME280;36409;52.168;20.878;2023-04-25T04:58:35;99269.73;;;10.70;66.75
50484;BME280;36409;52.168;20.878;2023-04-25T05:01:15;99265.32;;;10.72;67.00
50484;BME280;36409;52.168;20.878;2023-04-25T05:04:11;99268.74;;;10.74;67.71
50484;BME280;36409;52.168;20.878;2023-04-25T05:07:20;99261.66;;;10.77;67.40
50484;BME280;36409;52.168;20.878;2023-04-25T05:10:09;99271.27;;;10.77;66.95
50484;BME280;36409;52.168;20.878;2023-04-25T05:13:05;99273.15;;;10.72;67.32
50484;BME280;36409;52.168;20.878;2023-04-25T05:15:54;99280.23;;;10.68;67.36
50484;BME280;36409;52.168;20.878;2023-04-25T05:18:52;99274.32;;;10.63;67.76
50484;BME280;36409;52.168;20.878;2023-04-25T05:21:56;99277.08;;;10.58;67.63
50484;BME280;36409;52.168;20.878;2023-04-25T05:24:44;99266.67;;;10.57;67.74
50484;BME280;36409;52.168;20.878;2023-04-25T05:27:43;99269.34;;;10.55;67.57
50484;BME280;36409;52.168;20.878;2023-04-25T05:30:44;99270.15;;;10.57;67.47
50484;BME280;36409;52.168;20.878;2023-04-25T05:33:40;99274.41;;;10.60;67.45
50484;BME280;36409;52.168;20.878;2023-04-25T05:36:12;99269.10;;;10.63;67.66
50484;BME280;36409;52.168;20.878;2023-04-25T05:38:45;99266.34;;;10.68;67.44
50484;BME280;36409;52.168;20.878;2023-04-25T05:41:18;99271.41;;;10.72;68.42
50484;BME280;36409;52.168;20.878;2023-04-25T05:44:00;99273.06;;;10.75;67.72
50484;BME280;36409;52.168;20.878;2023-04-25T05:46:47;99277.38;;;10.76;68.51
50484;BME280;36409;52.168;20.878;2023-04-25T05:49:35;99280.83;;;10.76;68.04
50484;BME280;36409;52.168;20.878;2023-04-25T05:52:23;99285.15;;;10.77;68.46
50484;BME280;36409;52.168;20.878;2023-04-25T05:55:19;99286.86;;;10.78;68.08
50484;BME280;36409;52.168;20.878;2023-04-25T05:57:52;99283.41;;;10.78;67.83
50484;BME280;36409;52.168;20.878;2023-04-25T06:00:26;99277.38;;;10.76;68.34
50484;BME280;36409;52.168;20.878;2023-04-25T06:02:59;99284.55;;;10.69;68.44
50484;BME280;36409;52.168;20.878;2023-04-25T06:05:33;99289.05;;;10.64;68.61
50484;BME280;36409;52.168;20.878;2023-04-25T06:08:06;99296.03;;;10.63;68.50
50484;BME280;36409;52.168;20.878;2023-04-25T06:10:39;99302.09;;;10.64;68.76
50484;BME280;36409;52.168;20.878;2023-04-25T06:13:11;99309.09;;;10.63;68.25
50484;BME280;36409;52.168;20.878;2023-04-25T06:15:44;99318.83;;;10.58;68.36
50484;BME280;36409;52.168;20.878;2023-04-25T06:18:17;99334.57;;;10.55;68.82
50484;BME280;36409;52.168;20.878;2023-04-25T06:20:51;99356.48;;;10.49;68.20
50484;BME280;36409;52.168;20.878;2023-04-25T06:23:23;99361.02;;;10.43;68.69
50484;BME280;36409;52.168;20.878;2023-04-25T06:26:02;99362.00;;;10.39;68.42
50484;BME280;36409;52.168;20.878;2023-04-25T06:28:37;99361.29;;;10.32;68.12
50484;BME280;36409;52.168;20.878;2023-04-25T06:31:10;99351.81;;;10.29;68.06
50484;BME280;36409;52.168;20.878;2023-04-25T06:33:43;99349.34;;;10.25;68.82
50484;BME280;36409;52.168;20.878;2023-04-25T06:36:15;99353.82;;;10.19;68.09
50484;BME280;36409;52.168;20.878;2023-04-25T06:38:49;99351.21;;;10.19;68.83
50484;BME280;36409;52.168;20.878;2023-04-25T06:41:22;99355.59;;;10.19;68.28
50484;BME280;36409;52.168;20.878;2023-04-25T06:43:55;99343.50;;;10.16;68.19
50484;BME280;36409;52.168;20.878;2023-04-25T06:46:36;99345.23;;;10.16;68.16
50484;BME280;36409;52.168;20.878;2023-04-25T06:49:09;99343.50;;;10.16;68.77
50484;BME280;36409;52.168;20.878;2023-04-25T06:51:42;99342.47;;;10.22;68.51
50484;BME280;36409;52.168;20.878;2023-04-25T06:54:15;99325.79;;;10.28;68.82
50484;BME280;36409;52.168;20.878;2023-04-25T06:56:58;99331.63;;;10.36;68.60
50484;BME280;36409;52.168;20.878;2023-04-25T06:59:32;99331.37;;;10.45;68.30
50484;BME280;36409;52.168;20.878;2023-04-25T07:02:07;99332.05;;;10.52;68.89
50484;BME280;36409;52.168;20.878;2023-04-25T07:04:40;99322.28;;;10.59;68.50
50484;BME280;36409;52.168;20.878;2023-04-25T07:07:13;99325.58;;;10.64;68.54
50484;BME280;36409;52.168;20.878;2023-04-25T07:10:06;99322.80;;;10.70;69.30
50484;BME280;36409;52.168;20.878;2023-04-25T07:12:40;99325.34;;;10.72;68.77
50484;BME280;36409;52.168;20.878;2023-04-25T07:15:13;99324.53;;;10.70;68.39
50484;BME280;36409;52.168;20.878;2023-04-25T07:17:47;99335.23;;;10.62;68.65
50484;BME280;36409;52.168;20.878;2023-04-25T07:20:22;99331.81;;;10.60;68.59
50484;BME280;36409;52.168;20.878;2023-04-25T07:22:55;99328.31;;;10.61;69.20
50484;BME280;36409;52.168;20.878;2023-04-25T07:25:28;99332.57;;;10.63;68.81
50484;BME280;36409;52.168;20.878;2023-04-25T07:28:02;99330.72;;;10.67;68.85
50484;BME280;36409;52.168;20.878;2023-04-25T07:30:35;99331.32;;;10.75;69.21
50484;BME280;36409;52.168;20.878;2023-04-25T07:33:08;99332.88;;;10.81;69.03
50484;BME280;36409;52.168;20.878;2023-04-25T07:35:41;99341.44;;;10.86;68.67
50484;BME280;36409;52.168;20.878;2023-04-25T07:38:17;99343.00;;;10.92;69.40
50484;BME280;36409;52.168;20.878;2023-04-25T07:40:50;99344.70;;;10.93;68.85
50484;BME280;36409;52.168;20.878;2023-04-25T07:43:26;99344.50;;;10.99;69.47
50484;BME280;36409;52.168;20.878;2023-04-25T07:46:04;99342.04;;;10.94;69.33
50484;BME280;36409;52.168;20.878;2023-04-25T07:48:40;99343.00;;;10.92;68.69
50484;BME280;36409;52.168;20.878;2023-04-25T07:51:13;99351.43;;;11.00;68.79
50484;BME280;36409;52.168;20.878;2023-04-25T07:53:45;99349.48;;;11.07;68.61
50484;BME280;36409;52.168;20.878;2023-04-25T07:56:21;99356.35;;;11.09;68.63
50484;BME280;36409;52.168;20.878;2023-04-25T07:58:55;99356.72;;;10.99;68.71
50484;BME280;36409;52.168;20.878;2023-04-25T08:01:28;99350.83;;;10.92;68.66
50484;BME280;36409;52.168;20.878;2023-04-25T08:04:06;99350.98;;;10.87;68.98
50484;BME280;36409;52.168;20.878;2023-04-25T08:07:00;99347.47;;;10.88;69.32
50484;BME280;36409;52.168;20.878;2023-04-25T08:09:38;99344.65;;;10.94;69.22
50484;BME280;36409;52.168;20.878;2023-04-25T08:12:16;99352.33;;;10.99;68.41
50484;BME280;36409;52.168;20.878;2023-04-25T08:14:54;99349.72;;;10.99;68.92
50484;BME280;36409;52.168;20.878;2023-04-25T08:17:27;99351.55;;;10.97;68.47
50484;BME280;36409;52.168;20.878;2023-04-25T08:20:00;99359.33;;;10.99;69.32
50484;BME280;36409;52.168;20.878;2023-04-25T08:22:37;99360.37;;;10.93;69.11
50484;BME280;36409;52.168;20.878;2023-04-25T08:25:29;99361.42;;;10.87;68.67
50484;BME280;36409;52.168;20.878;2023-04-25T08:28:02;99364.20;;;10.81;68.41
50484;BME280;36409;52.168;20.878;2023-04-25T08:30:36;99362.70;;;10.74;68.92
50484;BME280;36409;52.168;20.878;2023-04-25T08:33:13;99371.42;;;10.73;68.71
50484;BME280;36409;52.168;20.878;2023-04-25T08:36:15;99378.50;;;10.69;68.69
50484;BME280;36409;52.168;20.878;2023-04-25T08:39:08;99374.23;;;10.66;68.60
50484;BME280;36409;52.168;20.878;2023-04-25T08:41:48;99380.52;;;10.59;69.09
50484;BME280;36409;52.168;20.878;2023-04-25T08:44:22;99392.88;;;10.54;68.73
50484;BME280;36409;52.168;20.878;2023-04-25T08:46:56;99389.39;;;10.54;69.18
50484;BME280;36409;52.168;20.878;2023-04-25T08:49:34;99393.84;;;10.50;68.66
50484;BME280;36409;52.168;20.878;2023-04-25T08:52:10;99396.57;;;10.47;69.14
50484;BME280;36409;52.168;20.878;2023-04-25T08:54:48;99401.05;;;10.42;68.34
50484;BME280;36409;52.168;20.878;2023-04-25T08:57:23;99404.48;;;10.44;69.17
50484;BME280;36409;52.168;20.878;2023-04-25T09:00:01;99399.18;;;10.47;68.94
50484;BME280;36409;52.168;20.878;2023-04-25T09:02:38;99399.88;;;10.52;69.39
50484;BME280;36409;52.168;20.878;2023-04-25T09:05:13;99403.22;;;10.57;69.14
50484;BME280;36409;52.168;20.878;2023-04-25T09:07:50;99411.13;;;10.54;68.95
50484;BME280;36409;52.168;20.878;2023-04-25T09:10:23;99410.52;;;10.46;69.25
50484;BME280;36409;52.168;20.878;2023-04-25T09:13:08;99412.25;;;10.45;69.18
50484;BME280;36409;52.168;20.878;2023-04-25T09:16:21;99414.04;;;10.43;68.85
50484;BME280;36409;52.168;20.878;2023-04-25T09:19:24;99416.70;;;10.42;69.52
50484;BME280;36409;52.168;20.878;2023-04-25T09:22:25;99420.31;;;10.36;69.20
50484;BME280;36409;52.168;20.878;2023-04-25T09:25:04;99418.67;;;10.32;69.21
50484;BME280;36409;52.168;20.878;2023-04-25T09:27:50;99424.79;;;10.31;69.27
50484;BME280;36409;52.168;20.878;2023-04-25T09:30:37;99428.33;;;10.30;68.64
50484;BME280;36409;52.168;20.878;2023-04-25T09:33:16;99429.98;;;10.32;69.09
50484;BME280;36409;52.168;20.878;2023-04-25T09:35:52;99434.15;;;10.40;68.76
50484;BME280;36409;52.168;20.878;2023-04-25T09:38:48;99440.12;;;10.43;69.07
50484;BME280;36409;52.168;20.878;2023-04-25T09:41:30;99434.07;;;10.43;69.44
50484;BME280;36409;52.168;20.878;2023-04-25T09:44:07;99441.95;;;10.41;68.91
50484;BME280;36409;52.168;20.878;2023-04-25T09:46:42;99440.19;;;10.42;69.34
50484;BME280;36409;52.168;20.878;2023-04-25T09:49:21;99447.17;;;10.41;69.47
50484;BME280;36409;52.168;20.878;2023-04-25T09:52:09;99450.67;;;10.40;68.83
50484;BME280;36409;52.168;20.878;2023-04-25T09:54:49;99452.41;;;10.40;68.97
50484;BME280;36409;52.168;20.878;2023-04-25T09:57:29;99447.23;;;10.36;69.43
50484;BME280;36409;52.168;20.878;2023-04-25T10:00:02;99449.84;;;10.36;69.22
50484;BME280;36409;52.168;20.878;2023-04-25T10:02:47;99442.89;;;10.37;69.22
50484;BME280;36409;52.168;20.878;2023-04-25T10:05:37;99452.41;;;10.40;69.12
50484;BME280;36409;52.168;20.878;2023-04-25T10:08:13;99453.30;;;10.39;69.01
50484;BME280;36409;52.168;20.878;2023-04-25T10:10:49;99455.84;;;10.42;68.64
50484;BME280;36409;52.168;20.878;2023-04-25T10:13:25;99447.06;;;10.44;69.21
50484;BME280;36409;52.168;20.878;2023-04-25T10:15:58;99454.05;;;10.44;69.31
50484;BME280;36409;52.168;20.878;2023-04-25T10:18:33;99454.17;;;10.39;69.43
50484;BME280;36409;52.168;20.878;2023-04-25T10:21:06;99453.38;;;10.35;69.26
50484;BME280;36409;52.168;20.878;2023-04-25T10:23:39;99456.06;;;10.32;68.85
50484;BME280;36409;52.168;20.878;2023-04-25T10:26:12;99453.61;;;10.26;68.78
50484;BME280;36409;52.168;20.878;2023-04-25T10:28:59;99460.72;;;10.21;69.52
50484;BME280;36409;52.168;20.878;2023-04-25T10:31:32;99449.47;;;10.19;69.44
50484;BME280;36409;52.168;20.878;2023-04-25T10:34:06;99452.89;;;10.21;69.41
50484;BME280;36409;52.168;20.878;2023-04-25T10:36:39;99460.64;;;10.24;69.01
50484;BME280;36409;52.168;20.878;2023-04-25T10:39:11;99458.83;;;10.26;69.43
50484;BME280;36409;52.168;20.878;2023-04-25T10:41:55;99449.39;;;10.22;69.24
50484;BME280;36409;52.168;20.878;2023-04-25T10:44:31;99449.47;;;10.19;69.14
50484;BME280;36409;52.168;20.878;2023-04-25T10:47:03;99449.41;;;10.20;69.55
50484;BME280;36409;52.168;20.878;2023-04-25T10:49:42;99451.11;;;10.23;69.30
50484;BME280;36409;52.168;20.878;2023-04-25T10:52:24;99451.05;;;10.25;69.50
50484;BME280;36409;52.168;20.878;2023-04-25T10:54:58;99449.34;;;10.24;69.17
50484;BME280;36409;52.168;20.878;2023-04-25T10:57:42;99445.78;;;10.26;69.39
50484;BME280;36409;52.168;20.878;2023-04-25T11:00:19;99449.97;;;10.32;68.84
50484;BME280;36409;52.168;20.878;2023-04-25T11:03:01;99446.30;;;10.41;68.90
50484;BME280;36409;52.168;20.878;2023-04-25T11:05:36;99447.95;;;10.43;68.88
50484;BME280;36409;52.168;20.878;2023-04-25T11:08:36;99451.30;;;10.48;69.28
50484;BME280;36409;52.168;20.878;2023-04-25T11:11:14;99439.78;;;10.56;68.78
50484;BME280;36409;52.168;20.878;2023-04-25T11:13:49;99452.55;;;10.65;68.66
50484;BME280;36409;52.168;20.878;2023-04-25T11:16:25;99447.12;;;10.73;68.85
50484;BME280;36409;52.168;20.878;2023-04-25T11:19:00;99452.17;;;10.79;68.83
50484;BME280;36409;52.168;20.878;2023-04-25T11:21:33;99448.55;;;10.83;68.64
50484;BME280;36409;52.168;20.878;2023-04-25T11:24:07;99449.31;;;10.87;69.44
50484;BME280;36409;52.168;20.878;2023-04-25T11:26:42;99445.77;;;10.89;68.82
50484;BME280;36409;52.168;20.878;2023-04-25T11:29:14;99455.13;;;10.96;69.11
50484;BME280;36409;52.168;20.878;2023-04-25T11:31:48;99448.91;;;11.01;68.83
50484;BME280;36409;52.168;20.878;2023-04-25T11:34:23;99454.83;;;11.06;68.30
50484;BME280;36409;52.168;20.878;2023-04-25T11:36:58;99452.98;;;11.09;68.91
50484;BME280;36409;52.168;20.878;2023-04-25T11:39:31;99449.47;;;11.10;68.30
50484;BME280;36409;52.168;20.878;2023-04-25T11:42:07;99447.81;;;11.08;68.15
50484;BME280;36409;52.168;20.878;2023-04-25T11:44:44;99446.08;;;11.08;68.09
50484;BME280;36409;52.168;20.878;2023-04-25T11:47:16;99446.83;;;11.12;68.39
50484;BME280;36409;52.168;20.878;2023-04-25T11:49:50;99454.69;;;11.10;68.73
50484;BME280;36409;52.168;20.878;2023-04-25T11:52:28;99452.34;;;11.03;67.96
50484;BME280;36409;52.168;20.878;2023-04-25T11:55:12;99453.49;;;10.92;68.16
50484;BME280;36409;52.168;20.878;2023-04-25T11:57:47;99450.23;;;10.86;67.84
50484;BME280;36409;52.168;20.878;2023-04-25T12:00:24;99448.69;;;10.78;68.20
50484;BME280;36409;52.168;20.878;2023-04-25T12:02:58;99449.81;;;10.70;67.49
50484;BME280;36409;52.168;20.878;2023-04-25T12:05:32;99457.83;;;10.63;68.31
50484;BME280;36409;52.168;20.878;2023-04-25T12:08:13;99446.63;;;10.60;68.17
50484;BME280;36409;52.168;20.878;2023-04-25T12:10:48;99448.42;;;10.58;68.11
50484;BME280;36409;52.168;20.878;2023-04-25T12:13:24;99447.74;;;10.51;67.71
50484;BME280;36409;52.168;20.878;2023-04-25T12:16:01;99448.56;;;10.53;67.51
50484;BME280;36409;52.168;20.878;2023-04-25T12:18:37;99457.20;;;10.55;67.59
50484;BME280;36409;52.168;20.878;2023-04-25T12:21:11;99455.44;;;10.56;67.76
50484;BME280;36409;52.168;20.878;2023-04-25T12:23:44;99446.69;;;10.58;67.40
50484;BME280;36409;52.168;20.878;2023-04-25T12:26:19;99454.41;;;10.61;67.84
50484;BME280;36409;52.168;20.878;2023-04-25T12:28:54;99454.38;;;10.63;67.53
50484;BME280;36409;52.168;20.878;2023-04-25T12:31:28;99456.17;;;10.61;67.73
50484;BME280;36409;52.168;20.878;2023-04-25T12:34:03;99454.52;;;10.58;67.21
50484;BME280;36409;52.168;20.878;2023-04-25T12:36:35;99448.42;;;10.58;67.24
50484;BME280;36409;52.168;20.878;2023-04-25T12:39:08;99451.91;;;10.58;67.40
50484;BME280;36409;52.168;20.878;2023-04-25T12:41:42;99454.46;;;10.60;67.30
50484;BME280;36409;52.168;20.878;2023-04-25T12:44:16;99451.80;;;10.61;67.53
50484;BME280;36409;52.168;20.878;2023-04-25T12:46:50;99449.19;;;10.61;67.37
50484;BME280;36409;52.168;20.878;2023-04-25T12:49:23;99452.61;;;10.63;67.54
50484;BME280;36409;52.168;20.878;2023-04-25T12:51:58;99442.12;;;10.65;67.29
50484;BME280;36409;52.168;20.878;2023-04-25T12:54:31;99439.56;;;10.63;67.19
50484;BME280;36409;52.168;20.878;2023-04-25T12:57:15;99444.02;;;10.60;67.56
50484;BME280;36409;52.168;20.878;2023-04-25T12:59:48;99443.02;;;10.64;67.32
50484;BME280;36409;52.168;20.878;2023-04-25T13:02:24;99435.16;;;10.65;67.00
50484;BME280;36409;52.168;20.878;2023-04-25T13:04:57;99436.95;;;10.63;67.04
50484;BME280;36409;52.168;20.878;2023-04-25T13:07:30;99439.48;;;10.66;67.38
50484;BME280;36409;52.168;20.878;2023-04-25T13:10:07;99434.27;;;10.66;66.90
50484;BME280;36409;52.168;20.878;2023-04-25T13:12:39;99439.42;;;10.68;66.95
50484;BME280;36409;52.168;20.878;2023-04-25T13:15:12;99434.04;;;10.74;67.43
50484;BME280;36409;52.168;20.878;2023-04-25T13:17:46;99431.17;;;10.82;67.73
50484;BME280;36409;52.168;20.878;2023-04-25T13:20:19;99436.14;;;10.91;67.09
50484;BME280;36409;52.168;20.878;2023-04-25T13:22:51;99436.14;;;10.91;67.70
50484;BME280;36409;52.168;20.878;2023-04-25T13:25:24;99433.42;;;10.94;67.02
50484;BME280;36409;52.168;20.878;2023-04-25T13:27:58;99429.97;;;10.94;66.66
50484;BME280;36409;52.168;20.878;2023-04-25T13:30:30;99424.89;;;10.89;67.18
50484;BME280;36409;52.168;20.878;2023-04-25T13:33:03;99430.14;;;10.88;67.33
50484;BME280;36409;52.168;20.878;2023-04-25T13:35:38;99431.01;;;10.88;67.48
50484;BME280;36409;52.168;20.878;2023-04-25T13:38:11;99427.44;;;10.91;67.19
50484;BME280;36409;52.168;20.878;2023-04-25T13:40:44;99431.68;;;10.95;67.60
50484;BME280;36409;52.168;20.878;2023-04-25T13:43:17;99423.03;;;10.93;66.83
50484;BME280;36409;52.168;20.878;2023-04-25T13:45:49;99422.08;;;10.95;67.55